Comte. Rolim Adolfo Amaro–Jundiaí State Airport

SBJD · São Paulo, Brazil

METAR history SBJD · Comte. Rolim Adolfo Amaro–Jundiaí State Airport

Below you see METARs of the last few days. Select a year to browse through older METARs, from the year 2007 onwards.

November 29, 2022

Time Code Weather Temp. Visibility Ceiling Wind METAR/SPECI
05:00
V
18 °C 10 km+ - 110° 110° 7 kt METAR SBKP 290800Z 11007KT CAVOK 18/16 Q1007
04:00
V
18 °C 10 km+ - 120° 120° 8 kt METAR SBKP 290700Z 12008KT CAVOK 18/16 Q1006
03:00
V
18 °C 10 km+ - 120° 120° 9 kt METAR SBKP 290600Z 12009KT CAVOK 18/16 Q1006
02:00
V
18 °C 10 km+ - 120° 120° 8 kt METAR SBKP 290500Z 12008KT CAVOK 18/17 Q1007
01:00
V
18 °C 10 km+ - 120° 120° 9 kt METAR SBKP 290400Z 12009KT CAVOK 18/17 Q1007
00:00
V
18 °C 10 km+ - 130° 130° 8 kt METAR SBKP 290300Z 13008KT CAVOK 18/17 Q1008

November 28, 2022

Time Code Weather Temp. Visibility Ceiling Wind METAR/SPECI
23:00
V
18 °C 10 km+ - 120° 120° 7 kt METAR SBKP 290200Z 12007KT CAVOK 18/17 Q1008
22:00
V
18 °C 10 km+ - 120° 120° 10 kt METAR SBKP 290100Z 12010KT CAVOK 18/17 Q1008
21:00
V
18 °C 10 km+ - 140° 140° 11 kt METAR SBKP 290000Z 14011KT CAVOK 18/17 Q1008
20:00
V
18 °C 10 km+ - 130° 130° 9 kt METAR SBKP 282300Z 13009KT CAVOK 18/17 Q1008
19:00
V
18 °C 10 km+ - 120° 120° 10 kt METAR SBKP 282200Z 12010KT CAVOK 18/16 Q1007
18:00
V
18 °C 9 km 7,000 ft 120° 120° 9 kt METAR SBKP 282100Z 12009KT 9000 -RA FEW045 BKN070 18/17 Q1008 RERA
17:30
M
18 °C 7 km 7,000 ft 110° 110° 7 kt METAR SBKP 282030Z 11007KT 7000 -RA SCT045 BKN070 18/16 Q1009 RERA
17:00
M
19 °C 6 km 7,000 ft 170° 170° 10 kt METAR SBKP 282000Z 17010KT 6000 RA SCT040 OVC070 19/17 Q1009 RETS
16:00
M
19 °C 5 km 10,000 ft 160° 160° 9 kt METAR SBKP 281900Z 16009KT 5000 TSRA BR FEW010 SCT035 FEW040CB OVC100 19/17 Q1009
15:30
V
20 °C 9 km 10,000 ft 200° 200° 7 kt METAR SBKP 281830Z 20007KT 170V230 9000 -TSRA FEW010 SCT035 FEW040CB OVC100 20/17 Q1009
15:00
V
20 °C 10 km+ 10,000 ft 110° 110° 7 kt METAR SBKP 281800Z 11007KT 9999 -RA VCTS FEW010 FEW035CB BKN100 20/17 Q1007
14:35
V
20 °C 10 km+ 10,000 ft 120° 120° 10 kt METAR SBKP 281735Z 12010KT 9999 -RA VCTS SCT030 FEW035CB BKN100 20/17 Q1007
14:00
V
21 °C 10 km+ 10,000 ft 060° 060° 7 kt METAR SBKP 281700Z 06007KT 030V100 9999 VCSH VCTS FEW010 SCT035 FEW040CB BKN100 21/17 Q1008 RETS
13:00
V
22 °C 10 km+ - 040° 040° 17 - 29 kt METAR SBKP 281600Z 04017G29KT 9999 4000E -TSRA SCT030 FEW040CB 22/17 Q1009
12:43
V
25 °C 10 km+ - 020° 020° 18 - 28 kt METAR SBKP 281543Z 02018G28KT 9999 4000NE -TSRA SCT040 FEW040CB 25/16 Q1008
12:00
V
27 °C 10 km+ - 270° 270° 6 kt METAR SBKP 281500Z 27006KT 230V310 9999 SCT040 FEW040TCU 27/17 Q1009
11:00
V
26 °C 10 km+ - Var Var 5 kt METAR SBKP 281400Z VRB05KT 9999 SCT035 26/17 Q1010
10:00
V
24 °C 10 km+ 10,000 ft 120° 120° 3 kt METAR SBKP 281300Z 12003KT 320V080 9999 FEW020 BKN100 24/17 Q1011
09:00
V
22 °C 10 km+ - 120° 120° 9 kt METAR SBKP 281200Z 12009KT 9999 FEW015 22/18 Q1011
08:00
V
20 °C 10 km+ 8,000 ft 120° 120° 10 kt METAR SBKP 281100Z 12010KT 9999 FEW015 BKN080 20/17 Q1011
07:00
V
20 °C 10 km+ 8,000 ft 120° 120° 10 kt METAR SBKP 281000Z 12010KT 9999 FEW015 BKN080 20/17 Q1011
06:00
V
19 °C 10 km+ - 120° 120° 9 kt METAR SBKP 280900Z 12009KT CAVOK 19/17 Q1010
05:00
V
20 °C 10 km+ 10,000 ft 140° 140° 12 kt METAR SBKP 280800Z 14012KT 9999 FEW015 SCT035 BKN100 20/17 Q1010
04:00
V
20 °C 10 km+ 10,000 ft 150° 150° 9 kt METAR SBKP 280700Z 15009KT 9999 FEW015 BKN100 20/17 Q1011
03:00
V
19 °C 10 km+ 10,000 ft 140° 140° 6 kt METAR SBKP 280600Z 14006KT 9999 FEW015 BKN100 19/17 Q1011
02:00
V
19 °C 10 km+ 10,000 ft 150° 150° 3 kt METAR SBKP 280500Z 15003KT 9999 FEW020 BKN100 19/17 Q1011
01:00
M
19 °C 10 km+ 2,000 ft 140° 140° 9 kt METAR SBKP 280400Z 14009KT 9999 BKN020 BKN100 19/18 Q1012
00:00
V
19 °C 10 km+ - 120° 120° 4 kt METAR SBKP 280300Z 12004KT 9999 FEW015 19/17 Q1012

November 27, 2022

Time Code Weather Temp. Visibility Ceiling Wind METAR/SPECI
23:00
V
19 °C 10 km+ 10,000 ft 130° 130° 7 kt METAR SBKP 280200Z 13007KT 9999 FEW020 BKN100 19/17 Q1013
22:00
V
20 °C 10 km+ - 130° 130° 8 kt METAR SBKP 280100Z 13008KT 9999 FEW020 20/18 Q1013
21:00
V
20 °C 10 km+ - 140° 140° 9 kt METAR SBKP 280000Z 14009KT CAVOK 20/18 Q1013
20:00
V
21 °C 10 km+ - 150° 150° 13 kt METAR SBKP 272300Z 15013KT 9999 FEW048 21/18 Q1012 RETS
19:00
V
20 °C 10 km+ 10,000 ft 110° 110° 12 kt METAR SBKP 272200Z 11012KT 9999 4000E -TSRA FEW020 FEW045CB BKN100 20/18 Q1012
18:00
M
21 °C 6 km 7,000 ft 080° 080° 2 kt METAR SBKP 272100Z 08002KT 6000 -TSRA FEW020 FEW050CB OVC070 21/18 Q1014
17:25
V
22 °C 10 km+ 10,000 ft 010° 010° 6 kt METAR SBKP 272025Z 01006KT 9999 -TSRA FEW045 SCT050CB BKN100 22/18 Q1013
17:00
V
21 °C 10 km+ - 130° 130° 17 kt METAR SBKP 272000Z 13017KT 9999 VCSH VCTS SCT045 FEW050CB 21/17 Q1012
16:00
V
24 °C 10 km+ - 170° 170° 18 kt METAR SBKP 271900Z 17018KT 9999 VCSH SCT045 FEW050TCU 24/19 Q1011 RETSRA
15:35
V
25 °C 10 km+ - 170° 170° 15 kt METAR SBKP 271835Z 17015KT 9999 -RA SCT045 FEW050TCU 25/18 Q1011 RETSRA
15:00
V
25 °C 10 km+ - 180° 180° 13 kt METAR SBKP 271800Z 18013KT 9999 TSRA SCT045 FEW050CB 25/18 Q1010
14:00
V
30 °C 10 km+ 4,500 ft Var Var 3 kt METAR SBKP 271700Z VRB03KT 9999 VCSH BKN045 FEW050TCU 30/13 Q1011
13:00
V
29 °C 10 km+ 4,500 ft 130° 130° 6 kt METAR SBKP 271600Z 13006KT 080V190 9999 BKN045 29/15 Q1012
12:00
V
27 °C 10 km+ 4,000 ft 140° 140° 4 kt METAR SBKP 271500Z 14004KT 100V210 9999 BKN040 27/15 Q1013
11:00
V
27 °C 10 km+ - Var Var 4 kt METAR SBKP 271400Z VRB04KT 9999 SCT035 27/14 Q1014
10:00
V
26 °C 10 km+ - 070° 070° 7 kt METAR SBKP 271300Z 07007KT 030V130 9999 FEW030 26/15 Q1014
09:00
V
24 °C 10 km+ - 100° 100° 7 kt METAR SBKP 271200Z 10007KT 050V140 CAVOK 24/15 Q1015
08:00
V
21 °C 10 km+ - 130° 130° 13 kt METAR SBKP 271100Z 13013KT CAVOK 21/15 Q1015
07:00
V
19 °C 10 km+ - 120° 120° 10 kt METAR SBKP 271000Z 12010KT CAVOK 19/15 Q1014
06:00
V
17 °C 10 km+ - 120° 120° 12 kt METAR SBKP 270900Z 12012KT CAVOK 17/15 Q1013
05:00
V
17 °C 10 km+ - 120° 120° 11 kt METAR SBKP 270800Z 12011KT CAVOK 17/15 Q1013
04:00
V
17 °C 10 km+ - 120° 120° 10 kt METAR SBKP 270700Z 12010KT CAVOK 17/15 Q1013
03:00
V
17 °C 10 km+ - 120° 120° 10 kt METAR SBKP 270600Z 12010KT CAVOK 17/15 Q1013
02:00
V
17 °C 10 km+ - 130° 130° 8 kt METAR SBKP 270500Z 13008KT CAVOK 17/15 Q1013
01:00
V
18 °C 10 km+ - 110° 110° 5 kt METAR SBKP 270400Z 11005KT CAVOK 18/15 Q1014
00:00
V
19 °C 10 km+ - 140° 140° 12 kt METAR SBKP 270300Z 14012KT CAVOK 19/15 Q1014

November 26, 2022

Time Code Weather Temp. Visibility Ceiling Wind METAR/SPECI
23:00
V
19 °C 10 km+ - 130° 130° 12 kt METAR SBKP 270200Z 13012KT CAVOK 19/14 Q1015
22:00
V
20 °C 10 km+ - 130° 130° 12 kt METAR SBKP 270100Z 13012KT CAVOK 20/14 Q1015
21:00
V
20 °C 10 km+ - 130° 130° 14 kt METAR SBKP 270000Z 13014KT CAVOK 20/15 Q1015
20:00
V
22 °C 10 km+ - 150° 150° 10 kt METAR SBKP 262300Z 15010KT CAVOK 22/15 Q1014
19:00
V
23 °C 10 km+ - 150° 150° 11 kt METAR SBKP 262200Z 15011KT 9999 FEW048 SCT100 23/15 Q1014
18:00
V
23 °C 10 km+ - 130° 130° 13 kt METAR SBKP 262100Z 13013KT 9999 FEW048 SCT100 23/15 Q1014
17:00
V
24 °C 10 km+ - 100° 100° 4 kt METAR SBKP 262000Z 10004KT 9999 SCT040 FEW045TCU SCT080 24/14 Q1013 RETS
16:00
V
24 °C 10 km+ 8,000 ft 060° 060° 8 kt METAR SBKP 261900Z 06008KT 9999 TS SCT040 FEW045CB BKN080 24/15 Q1013
15:35
V
23 °C 10 km+ 10,000 ft 040° 040° 9 kt METAR SBKP 261835Z 04009KT 9999 TS VCSH SCT040 SCT045CB BKN100 23/16 Q1013
15:00
V
27 °C 10 km+ 10,000 ft 110° 110° 8 kt METAR SBKP 261800Z 11008KT 9999 VCSH SCT040 SCT045TCU BKN100 27/14 Q1013
14:00
V
27 °C 10 km+ 10,000 ft 130° 130° 8 kt METAR SBKP 261700Z 13008KT 090V150 9999 VCSH SCT040 FEW045TCU BKN100 27/14 Q1013
13:00
V
26 °C 10 km+ - Var Var 2 kt METAR SBKP 261600Z VRB02KT 9999 SCT035 FEW040TCU SCT100 26/14 Q1014
12:00
V
26 °C 10 km+ 3,500 ft 130° 130° 5 kt METAR SBKP 261500Z 13005KT 030V190 9999 BKN035 26/14 Q1015
11:00
V
25 °C 10 km+ - Var Var 7 kt METAR SBKP 261400Z VRB07KT 9999 FEW030 25/13 Q1015
10:00
V
23 °C 10 km+ - 130° 130° 9 kt METAR SBKP 261300Z 13009KT 9999 FEW030 23/14 Q1016
09:00
V
22 °C 10 km+ - 130° 130° 7 kt METAR SBKP 261200Z 13007KT CAVOK 22/14 Q1015
08:00
V
20 °C 10 km+ - 130° 130° 7 kt METAR SBKP 261100Z 13007KT CAVOK 20/14 Q1015
07:00
V
17 °C 10 km+ - 140° 140° 7 kt METAR SBKP 261000Z 14007KT CAVOK 17/14 Q1015

We and third parties follow your internet behavior on our website with cookies. If you continue, we assume you agree with our cookie policy.